createdAt,value
2023-03-12T00:00:07.932Z,100397.53
2023-03-12T00:02:23.676Z,100399.19
2023-03-12T00:04:19.181Z,100402.47
2023-03-12T00:06:14.687Z,100402.53
2023-03-12T00:08:13.681Z,100395.59
2023-03-12T00:10:10.285Z,100391.25
2023-03-12T00:12:05.736Z,100393.84
2023-03-12T00:14:02.549Z,100399.69
2023-03-12T00:15:58.122Z,100396.09
2023-03-12T00:17:53.743Z,100391.81
2023-03-12T00:19:48.981Z,100396.09
2023-03-12T00:21:44.158Z,100393.06
2023-03-12T00:23:42.620Z,100389.75
2023-03-12T00:25:37.581Z,100394.84
2023-03-12T00:27:32.860Z,100404.19
2023-03-12T00:29:27.799Z,100395.44
2023-03-12T00:31:24.739Z,100409.03
2023-03-12T00:33:19.719Z,100407.34
2023-03-12T00:35:15.548Z,100406.44
2023-03-12T00:37:11.168Z,100401.25
2023-03-12T00:39:09.514Z,100388.13
2023-03-12T00:41:04.453Z,100396.75
2023-03-12T00:42:59.703Z,100393.97
2023-03-12T00:44:54.689Z,100391.31
2023-03-12T00:46:50.121Z,100400.84
2023-03-12T00:48:45.465Z,100402.44
2023-03-12T00:50:40.980Z,100392.81
2023-03-12T00:52:36.357Z,100409.19
2023-03-12T00:54:34.666Z,100400.47
2023-03-12T00:56:30.241Z,100399.56
2023-03-12T00:58:26.578Z,100405.41
2023-03-12T01:00:23.261Z,100395.97
2023-03-12T01:02:19.123Z,100407.19
2023-03-12T01:04:15.125Z,100412.38
2023-03-12T01:06:10.902Z,100414.88
2023-03-12T01:08:07.139Z,100413.19
2023-03-12T01:10:05.437Z,100416.63
2023-03-12T01:12:00.872Z,100420.78
2023-03-12T01:13:56.474Z,100417.09
2023-03-12T01:15:51.753Z,100418.03
2023-03-12T01:17:47.126Z,100419.69
2023-03-12T01:19:42.099Z,100424.81
2023-03-12T01:21:38.437Z,100430.75
2023-03-12T01:23:33.482Z,100428.81
2023-03-12T01:25:31.643Z,100434.81
2023-03-12T01:27:26.829Z,100430.13
2023-03-12T01:29:22.110Z,100430.97
2023-03-12T01:31:20.970Z,100434.47
2023-03-12T01:33:16.785Z,100437.16
2023-03-12T01:35:13.080Z,100428.13
2023-03-12T01:37:09.585Z,100425.59
2023-03-12T01:39:04.600Z,100433.13
2023-03-12T01:41:03.375Z,100430.28
2023-03-12T01:43:00.303Z,100432.19
2023-03-12T01:44:59.396Z,100438.31
2023-03-12T01:46:54.412Z,100431.44
2023-03-12T01:48:54.148Z,100430.53
2023-03-12T01:50:49.276Z,100432.75
2023-03-12T01:52:44.215Z,100445.16
2023-03-12T01:54:44.313Z,100440.16
2023-03-12T01:56:43.342Z,100436.38
2023-03-12T01:58:43.374Z,100447.69
2023-03-12T02:00:39.341Z,100447.56
2023-03-12T02:02:36.180Z,100446.19
2023-03-12T02:04:33.802Z,100447.00
2023-03-12T02:06:36.171Z,100447.84
2023-03-12T02:08:32.263Z,100447.75
2023-03-12T02:10:28.667Z,100454.59
2023-03-12T02:12:26.206Z,100447.69
2023-03-12T02:14:22.082Z,100452.75
2023-03-12T02:16:18.264Z,100449.16
2023-03-12T02:18:18.088Z,100447.84
2023-03-12T02:20:19.977Z,100450.34
2023-03-12T02:22:16.798Z,100442.03
2023-03-12T02:24:20.904Z,100461.28
2023-03-12T02:26:20.390Z,100462.22
2023-03-12T02:28:17.938Z,100463.69
2023-03-12T02:30:17.297Z,100464.47
2023-03-12T02:32:18.262Z,100460.97
2023-03-12T02:34:13.950Z,100468.75
2023-03-12T02:36:09.380Z,100474.19
2023-03-12T02:38:06.015Z,100474.66
2023-03-12T02:40:07.856Z,100475.31
2023-03-12T02:42:05.925Z,100487.81
2023-03-12T02:44:05.520Z,100485.13
2023-03-12T02:46:00.930Z,100488.06
2023-03-12T02:47:56.093Z,100487.31
2023-03-12T02:49:51.392Z,100493.25
2023-03-12T02:51:47.645Z,100487.41
2023-03-12T02:53:43.090Z,100493.31
2023-03-12T02:55:37.993Z,100489.06
2023-03-12T02:57:37.631Z,100497.41
2023-03-12T02:59:32.648Z,100496.59
2023-03-12T03:01:28.293Z,100501.09
2023-03-12T03:03:23.335Z,100505.78
2023-03-12T03:05:20.372Z,100502.88
2023-03-12T03:07:15.369Z,100506.41
2023-03-12T03:09:10.884Z,100500.63
2023-03-12T03:11:06.281Z,100501.22
2023-03-12T03:13:04.158Z,100510.72
2023-03-12T03:14:59.856Z,100506.56
2023-03-12T03:16:55.487Z,100503.53
2023-03-12T03:18:50.741Z,100507.16
2023-03-12T03:20:46.326Z,100510.09
2023-03-12T03:22:41.929Z,100508.88
2023-03-12T03:24:38.124Z,100509.56
2023-03-12T03:26:31.320Z,100508.31
2023-03-12T03:28:32.139Z,100516.00
2023-03-12T03:30:27.427Z,100520.69
2023-03-12T03:32:23.100Z,100519.44
2023-03-12T03:34:18.294Z,100519.94
2023-03-12T03:36:15.048Z,100520.28
2023-03-12T03:38:10.389Z,100521.78
2023-03-12T03:40:06.451Z,100528.88
2023-03-12T03:42:01.628Z,100531.47
2023-03-12T03:44:02.159Z,100530.38
2023-03-12T03:46:00.389Z,100532.06
2023-03-12T03:47:56.205Z,100530.66
2023-03-12T03:49:51.841Z,100524.13
2023-03-12T03:51:47.453Z,100539.09
2023-03-12T03:53:42.782Z,100530.66
2023-03-12T03:55:39.815Z,100535.06
2023-03-12T03:57:35.151Z,100534.94
2023-03-12T03:59:33.375Z,100539.59
2023-03-12T04:01:28.713Z,100542.19
2023-03-12T04:03:24.322Z,100544.94
2023-03-12T04:05:20.840Z,100543.34
2023-03-12T04:07:16.571Z,100547.72
2023-03-12T04:09:11.794Z,100543.59
2023-03-12T04:11:11.429Z,100551.34
2023-03-12T04:13:06.705Z,100559.97
2023-03-12T04:15:05.037Z,100544.59
2023-03-12T04:17:00.147Z,100550.38
2023-03-12T04:18:55.558Z,100553.28
2023-03-12T04:20:50.724Z,100553.44
2023-03-12T04:22:46.022Z,100557.34
2023-03-12T04:24:41.053Z,100555.69
2023-03-12T04:26:36.359Z,100549.66
2023-03-12T04:28:31.613Z,100558.28
2023-03-12T04:30:29.596Z,100557.25
2023-03-12T04:32:24.819Z,100558.97
2023-03-12T04:34:20.298Z,100560.63
2023-03-12T04:36:16.299Z,100559.63
2023-03-12T04:38:11.669Z,100560.88
2023-03-12T04:40:09.459Z,100569.41
2023-03-12T04:42:04.815Z,100568.63
2023-03-12T04:43:59.752Z,100569.41
2023-03-12T04:45:58.190Z,100565.34
2023-03-12T04:47:53.800Z,100570.53
2023-03-12T04:49:49.180Z,100566.28
2023-03-12T04:51:44.153Z,100573.44
2023-03-12T04:53:40.592Z,100571.78
2023-03-12T04:55:35.606Z,100573.53
2023-03-12T04:57:30.984Z,100574.31
2023-03-12T04:59:25.941Z,100576.38
2023-03-12T05:01:27.549Z,100579.88
2023-03-12T05:03:23.054Z,100583.13
2023-03-12T05:05:18.348Z,100585.88
2023-03-12T05:07:13.436Z,100593.56
2023-03-12T05:09:08.846Z,100584.88
2023-03-12T05:11:03.837Z,100591.91
2023-03-12T05:12:59.170Z,100598.16
2023-03-12T05:14:54.248Z,100595.63
2023-03-12T05:16:52.316Z,100598.81
2023-03-12T05:18:47.918Z,100595.63
2023-03-12T05:20:43.247Z,100590.28
2023-03-12T05:22:38.185Z,100599.75
2023-03-12T05:24:33.471Z,100594.50
2023-03-12T05:26:33.655Z,100597.31
2023-03-12T05:28:30.627Z,100592.13
2023-03-12T05:30:25.752Z,100597.47
2023-03-12T05:32:23.958Z,100594.28
2023-03-12T05:34:19.114Z,100593.28
2023-03-12T05:36:15.206Z,100586.72
2023-03-12T05:38:10.140Z,100597.03
2023-03-12T05:40:07.719Z,100602.03
2023-03-12T05:42:02.702Z,100593.00
2023-03-12T05:43:59.434Z,100589.41
2023-03-12T05:45:55.174Z,100593.84
2023-03-12T05:47:53.243Z,100592.06
2023-03-12T05:49:48.340Z,100593.75
2023-03-12T05:51:43.801Z,100592.81
2023-03-12T05:53:38.845Z,100593.75
2023-03-12T05:55:37.451Z,100592.06
2023-03-12T05:57:32.579Z,100594.75
2023-03-12T05:59:28.087Z,100600.91
2023-03-12T06:01:26.183Z,100601.72
2023-03-12T06:03:24.109Z,100607.75
2023-03-12T06:05:19.265Z,100609.59
2023-03-12T06:07:14.611Z,100604.47
2023-03-12T06:09:09.832Z,100607.06
2023-03-12T06:11:05.424Z,100613.91
2023-03-12T06:13:00.956Z,100609.50
2023-03-12T06:14:56.543Z,100604.47
2023-03-12T06:16:51.975Z,100600.00
2023-03-12T06:18:50.277Z,100603.28
2023-03-12T06:20:45.433Z,100600.59
2023-03-12T06:22:40.738Z,100611.09
2023-03-12T06:24:35.843Z,100613.75
2023-03-12T06:26:31.436Z,100617.19
2023-03-12T06:28:26.477Z,100619.72
2023-03-12T06:30:21.730Z,100613.69
2023-03-12T06:32:18.339Z,100615.47
2023-03-12T06:34:16.874Z,100626.31
2023-03-12T06:36:13.133Z,100624.28
2023-03-12T06:38:08.148Z,100612.47
2023-03-12T06:40:04.746Z,100627.25
2023-03-12T06:41:59.781Z,100622.97
2023-03-12T06:43:55.242Z,100618.56
2023-03-12T06:45:50.753Z,100618.06
2023-03-12T06:47:46.107Z,100627.50
2023-03-12T06:49:43.692Z,100618.41
2023-03-12T06:51:39.113Z,100626.81
2023-03-12T06:53:35.030Z,100629.22
2023-03-12T06:55:30.655Z,100632.50
2023-03-12T06:57:25.592Z,100627.91
2023-03-12T06:59:21.759Z,100632.88
2023-03-12T07:01:16.864Z,100627.78
2023-03-12T07:03:13.480Z,100626.75
2023-03-12T07:05:12.720Z,100631.63
2023-03-12T07:07:08.627Z,100626.69
2023-03-12T07:09:06.271Z,100632.47
2023-03-12T07:11:03.597Z,100628.28
2023-03-12T07:12:58.885Z,100632.84
2023-03-12T07:14:54.196Z,100635.13
2023-03-12T07:16:49.205Z,100635.81
2023-03-12T07:18:44.633Z,100628.97
2023-03-12T07:20:44.702Z,100628.59
2023-03-12T07:22:40.051Z,100632.84
2023-03-12T07:24:34.970Z,100635.81
2023-03-12T07:26:30.385Z,100635.97
2023-03-12T07:28:25.837Z,100641.00
2023-03-12T07:30:21.536Z,100639.75
2023-03-12T07:32:16.540Z,100640.16
2023-03-12T07:34:11.980Z,100635.09
2023-03-12T07:36:11.005Z,100639.03
2023-03-12T07:38:06.495Z,100650.22
2023-03-12T07:40:01.732Z,100644.72
2023-03-12T07:41:57.228Z,100659.66
2023-03-12T07:43:52.400Z,100651.88
2023-03-12T07:45:48.123Z,100656.16
2023-03-12T07:47:43.254Z,100645.38
2023-03-12T07:49:39.628Z,100648.66
2023-03-12T07:51:37.203Z,100640.97
2023-03-12T07:53:32.510Z,100645.84
2023-03-12T07:55:27.595Z,100651.09
2023-03-12T07:57:23.102Z,100638.97
2023-03-12T07:59:19.762Z,100651.59
2023-03-12T08:01:15.274Z,100644.91
2023-03-12T08:03:10.520Z,100654.44
2023-03-12T08:05:06.571Z,100651.84
2023-03-12T08:07:06.324Z,100650.28
2023-03-12T08:09:03.336Z,100653.97
2023-03-12T08:10:58.319Z,100663.31
2023-03-12T08:12:53.720Z,100662.00
2023-03-12T08:14:49.097Z,100661.13
2023-03-12T08:16:44.639Z,100667.09
2023-03-12T08:18:39.894Z,100663.81
2023-03-12T08:20:35.208Z,100669.66
2023-03-12T08:22:32.737Z,100663.63
2023-03-12T08:24:28.188Z,100673.09
2023-03-12T08:26:23.244Z,100668.28
2023-03-12T08:28:19.679Z,100662.03
2023-03-12T08:30:15.924Z,100661.88
2023-03-12T08:32:12.375Z,100670.47
2023-03-12T08:34:07.435Z,100674.97
2023-03-12T08:36:02.760Z,100671.53
2023-03-12T08:38:01.041Z,100673.13
2023-03-12T08:39:57.511Z,100668.69
2023-03-12T08:41:55.438Z,100675.31
2023-03-12T08:43:50.831Z,100672.28
2023-03-12T08:45:45.861Z,100678.41
2023-03-12T08:47:42.170Z,100664.19
2023-03-12T08:49:37.643Z,100668.38
2023-03-12T08:51:33.039Z,100662.84
2023-03-12T08:53:30.830Z,100660.50
2023-03-12T08:55:27.807Z,100654.50
2023-03-12T08:57:22.784Z,100654.97
2023-03-12T08:59:18.184Z,100650.41
2023-03-12T09:01:15.239Z,100653.47
2023-03-12T09:03:14.021Z,100657.09
2023-03-12T09:05:10.197Z,100649.09
2023-03-12T09:07:05.452Z,100656.13
2023-03-12T09:09:05.079Z,100654.75
2023-03-12T09:11:00.434Z,100660.50
2023-03-12T09:12:55.399Z,100653.94
2023-03-12T09:15:03.117Z,100652.09
2023-03-12T09:17:00.154Z,100652.44
2023-03-12T09:18:55.583Z,100643.81
2023-03-12T09:20:50.548Z,100649.59
2023-03-12T09:22:46.476Z,100636.94
2023-03-12T09:24:44.289Z,100644.09
2023-03-12T09:26:39.603Z,100646.91
2023-03-12T09:28:34.917Z,100634.84
2023-03-12T09:30:32.067Z,100634.84
2023-03-12T09:32:27.408Z,100635.88
2023-03-12T09:34:22.755Z,100644.28
2023-03-12T09:36:17.833Z,100640.06
2023-03-12T09:38:16.468Z,100643.59
2023-03-12T09:40:19.960Z,100640.13
2023-03-12T09:42:25.691Z,100636.50
2023-03-12T09:44:28.354Z,100642.75
2023-03-12T09:46:29.447Z,100651.22
2023-03-12T09:48:33.979Z,100644.94
2023-03-12T09:50:33.474Z,100646.06
2023-03-12T09:52:32.084Z,100646.47
2023-03-12T09:54:35.188Z,100640.13
2023-03-12T09:56:32.970Z,100641.41
2023-03-12T09:58:32.550Z,100640.03
2023-03-12T10:00:33.484Z,100631.19
2023-03-12T10:02:45.966Z,100634.22
2023-03-12T10:04:58.650Z,100622.06
2023-03-12T10:06:59.652Z,100626.78
2023-03-12T10:09:05.997Z,100625.59
2023-03-12T10:11:12.506Z,100617.63
2023-03-12T10:13:35.643Z,100625.50
2023-03-12T10:15:42.681Z,100617.50
2023-03-12T10:17:57.947Z,100614.91
2023-03-12T10:20:10.561Z,100614.13
2023-03-12T10:22:14.459Z,100614.91
2023-03-12T10:24:19.504Z,100609.91
2023-03-12T10:26:19.157Z,100600.63
2023-03-12T10:28:19.936Z,100601.13
2023-03-12T10:30:24.414Z,100598.31
2023-03-12T10:32:24.851Z,100601.84
2023-03-12T10:34:24.014Z,100585.56
2023-03-12T10:36:22.151Z,100587.13
2023-03-12T10:38:21.810Z,100594.88
2023-03-12T10:40:20.648Z,100582.34
2023-03-12T10:42:19.665Z,100584.13
2023-03-12T10:44:20.995Z,100592.59
2023-03-12T10:46:41.584Z,100587.63
2023-03-12T10:48:36.915Z,100584.69
2023-03-12T10:50:34.504Z,100588.34
2023-03-12T10:52:29.869Z,100596.31
2023-03-12T10:54:25.958Z,100584.34
2023-03-12T10:56:22.626Z,100585.41
2023-03-12T10:58:26.164Z,100579.72
2023-03-12T11:00:25.402Z,100580.19
2023-03-12T11:02:38.012Z,100560.34
2023-03-12T11:04:35.343Z,100562.97
2023-03-12T11:06:32.528Z,100561.59
2023-03-12T11:08:30.632Z,100569.06
2023-03-12T11:10:28.271Z,100563.00
2023-03-12T11:12:29.075Z,100555.50
2023-03-12T11:14:26.071Z,100576.31
2023-03-12T11:16:32.130Z,100559.09
2023-03-12T11:18:34.858Z,100547.28
2023-03-12T11:20:33.705Z,100552.25
2023-03-12T11:22:34.204Z,100546.88
2023-03-12T11:24:30.364Z,100543.63
2023-03-12T11:26:28.210Z,100549.69
2023-03-12T11:28:28.150Z,100546.97
2023-03-12T11:30:27.901Z,100540.56
2023-03-12T11:32:30.091Z,100536.97
2023-03-12T11:34:31.525Z,100553.91
2023-03-12T11:36:41.425Z,100534.84
2023-03-12T11:38:42.536Z,100534.94
2023-03-12T11:40:55.639Z,100533.63
2023-03-12T11:43:09.503Z,100529.63
2023-03-12T11:45:14.906Z,100526.63
2023-03-12T11:47:20.985Z,100521.75
2023-03-12T11:49:29.523Z,100521.25
2023-03-12T11:51:36.725Z,100519.06
2023-03-12T11:53:45.998Z,100511.16
2023-03-12T11:55:58.569Z,100520.88
2023-03-12T11:58:05.159Z,100511.63
2023-03-12T12:00:12.375Z,100514.88
2023-03-12T12:02:25.547Z,100514.16
2023-03-12T12:04:54.904Z,100515.59
2023-03-12T12:07:03.237Z,100507.97
2023-03-12T12:09:08.757Z,100507.44
2023-03-12T12:11:11.117Z,100499.25
2023-03-12T12:13:13.584Z,100505.94
2023-03-12T12:15:20.726Z,100495.56
2023-03-12T12:17:28.233Z,100487.28
2023-03-12T12:19:35.372Z,100481.47
2023-03-12T12:21:45.112Z,100472.63
2023-03-12T12:23:56.969Z,100474.19
2023-03-12T12:26:09.219Z,100460.16
2023-03-12T12:28:31.767Z,100461.66
2023-03-12T12:30:38.714Z,100472.47
2023-03-12T12:32:44.415Z,100474.59
2023-03-12T12:35:06.090Z,100449.97
2023-03-12T12:37:18.702Z,100436.69
2023-03-12T12:39:18.194Z,100440.38
2023-03-12T12:41:18.575Z,100427.59
2023-03-12T12:43:36.063Z,100424.44
2023-03-12T12:45:32.179Z,100427.75
2023-03-12T12:47:37.716Z,100413.41
2023-03-12T12:49:39.652Z,100409.19
2023-03-12T12:51:40.028Z,100430.22
2023-03-12T12:53:43.864Z,100426.28
2023-03-12T12:55:43.282Z,100419.00
2023-03-12T12:57:44.093Z,100403.09
2023-03-12T12:59:43.213Z,100406.97
2023-03-12T13:01:40.649Z,100405.97
2023-03-12T13:03:35.824Z,100407.22
2023-03-12T13:05:43.428Z,100405.41
2023-03-12T13:07:38.508Z,100400.28
2023-03-12T13:09:46.174Z,100416.94
2023-03-12T13:11:46.223Z,100394.50
2023-03-12T13:13:41.490Z,100398.06
2023-03-12T13:15:43.485Z,100388.69
2023-03-12T13:17:59.638Z,100371.84
2023-03-12T13:20:01.526Z,100375.13
2023-03-12T13:22:08.527Z,100375.91
2023-03-12T13:24:18.280Z,100371.47
2023-03-12T13:26:23.860Z,100380.41
2023-03-12T13:28:38.050Z,100376.28
2023-03-12T13:30:50.182Z,100379.03
2023-03-12T13:33:14.392Z,100378.59
2023-03-12T13:35:34.118Z,100376.06
2023-03-12T13:37:53.093Z,100366.56
2023-03-12T13:39:48.439Z,100363.59
2023-03-12T13:41:50.370Z,100367.34
2023-03-12T13:44:23.694Z,100373.34
2023-03-12T13:46:35.846Z,100375.34
2023-03-12T13:48:31.377Z,100373.78
2023-03-12T13:50:26.790Z,100368.78
2023-03-12T13:52:25.559Z,100370.22
2023-03-12T13:54:21.950Z,100354.31
2023-03-12T13:56:22.019Z,100355.88
2023-03-12T13:58:23.341Z,100353.78
2023-03-12T14:00:22.549Z,100357.94
2023-03-12T14:02:25.295Z,100369.84
2023-03-12T14:04:25.177Z,100367.69
2023-03-12T14:06:23.093Z,100357.75
2023-03-12T14:08:33.870Z,100351.31
2023-03-12T14:10:36.400Z,100353.00
2023-03-12T14:12:38.265Z,100354.97
2023-03-12T14:15:06.627Z,100331.09
2023-03-12T14:17:05.494Z,100335.72
2023-03-12T14:19:01.563Z,100333.09
2023-03-12T14:21:01.297Z,100336.56
2023-03-12T14:23:01.672Z,100342.38
2023-03-12T14:25:01.965Z,100336.94
2023-03-12T14:26:58.018Z,100340.03
2023-03-12T14:29:01.955Z,100337.06
2023-03-12T14:31:04.279Z,100330.03
2023-03-12T14:33:01.986Z,100324.44
2023-03-12T14:35:05.669Z,100329.34
2023-03-12T14:37:05.910Z,100324.13
2023-03-12T14:39:11.679Z,100318.41
2023-03-12T14:41:14.570Z,100317.91
2023-03-12T14:43:23.528Z,100322.34
2023-03-12T14:45:23.003Z,100333.09
2023-03-12T14:47:21.405Z,100352.97
2023-03-12T14:49:23.103Z,100355.81
2023-03-12T14:51:24.619Z,100353.34
2023-03-12T14:53:25.850Z,100335.06
2023-03-12T14:55:23.822Z,100329.34
2023-03-12T14:57:24.774Z,100334.09
2023-03-12T14:59:26.489Z,100324.63
2023-03-12T15:01:24.321Z,100323.91
2023-03-12T15:03:21.998Z,100317.34
2023-03-12T15:05:20.539Z,100309.19
2023-03-12T15:07:18.261Z,100305.50
2023-03-12T15:09:22.115Z,100298.00
2023-03-12T15:11:24.606Z,100285.44
2023-03-12T15:13:22.296Z,100286.97
2023-03-12T15:15:32.177Z,100299.66
2023-03-12T15:17:32.274Z,100310.22
2023-03-12T15:19:35.579Z,100295.66
2023-03-12T15:21:31.068Z,100289.59
2023-03-12T15:23:28.220Z,100289.84
2023-03-12T15:25:28.752Z,100307.38
2023-03-12T15:27:32.859Z,100293.38
2023-03-12T15:29:29.873Z,100288.97
2023-03-12T15:31:25.153Z,100278.69
2023-03-12T15:33:26.518Z,100265.16
2023-03-12T15:35:29.954Z,100257.94
2023-03-12T15:37:32.446Z,100264.06
2023-03-12T15:39:30.283Z,100278.44
2023-03-12T15:41:29.501Z,100262.66
2023-03-12T15:43:27.546Z,100268.25
2023-03-12T15:45:26.024Z,100283.31
2023-03-12T15:47:23.241Z,100269.06
2023-03-12T15:49:28.424Z,100266.56
2023-03-12T15:51:36.413Z,100265.16
2023-03-12T15:53:34.066Z,100268.81
2023-03-12T15:55:32.747Z,100269.19
2023-03-12T15:57:28.964Z,100258.38
2023-03-12T15:59:27.645Z,100246.50
2023-03-12T16:01:28.079Z,100251.88
2023-03-12T16:03:24.532Z,100246.41
2023-03-12T16:05:20.483Z,100252.94
2023-03-12T16:07:18.072Z,100242.97
2023-03-12T16:09:19.672Z,100243.19
2023-03-12T16:11:19.717Z,100240.47
2023-03-12T16:13:18.549Z,100236.66
2023-03-12T16:15:17.725Z,100234.53
2023-03-12T16:17:17.925Z,100230.25
2023-03-12T16:19:14.925Z,100235.47
2023-03-12T16:21:10.706Z,100244.38
2023-03-12T16:23:08.333Z,100219.72
2023-03-12T16:25:04.375Z,100243.69
2023-03-12T16:27:01.443Z,100230.59
2023-03-12T16:28:56.757Z,100247.19
2023-03-12T16:30:52.217Z,100228.09
2023-03-12T16:32:48.046Z,100218.03
2023-03-12T16:34:43.762Z,100227.03
2023-03-12T16:36:39.811Z,100238.28
2023-03-12T16:38:37.333Z,100224.19
2023-03-12T16:40:35.636Z,100242.88
2023-03-12T16:42:34.137Z,100227.22
2023-03-12T16:44:32.285Z,100216.91
2023-03-12T16:46:31.779Z,100208.97
2023-03-12T16:48:27.757Z,100205.75
2023-03-12T16:50:24.915Z,100210.47
2023-03-12T16:52:22.484Z,100203.19
2023-03-12T16:54:20.435Z,100207.78
2023-03-12T16:56:20.053Z,100219.41
2023-03-12T16:58:18.079Z,100228.88
2023-03-12T17:00:17.585Z,100224.84
2023-03-12T17:02:18.675Z,100215.50
2023-03-12T17:04:14.593Z,100215.59
2023-03-12T17:06:11.077Z,100218.06
2023-03-12T17:08:07.137Z,100216.56
2023-03-12T17:10:05.441Z,100208.84
2023-03-12T17:12:01.012Z,100214.56
2023-03-12T17:13:59.705Z,100228.31
2023-03-12T17:15:55.667Z,100214.19
2023-03-12T17:17:51.289Z,100213.75
2023-03-12T17:19:46.655Z,100221.22
2023-03-12T17:21:41.786Z,100204.81
2023-03-12T17:23:37.195Z,100210.97
2023-03-12T17:25:37.453Z,100207.88
2023-03-12T17:27:32.929Z,100219.78
2023-03-12T17:29:27.991Z,100219.88
2023-03-12T17:31:24.735Z,100219.78
2023-03-12T17:33:21.549Z,100204.13
2023-03-12T17:35:17.015Z,100215.28
2023-03-12T17:37:12.077Z,100202.44
2023-03-12T17:39:07.444Z,100203.22
2023-03-12T17:41:23.472Z,100210.09
2023-03-12T17:43:21.141Z,100207.50
2023-03-12T17:45:16.527Z,100204.97
2023-03-12T17:47:12.144Z,100209.84
2023-03-12T17:49:07.236Z,100219.53
2023-03-12T17:51:02.700Z,100202.56
2023-03-12T17:52:57.740Z,100219.38
2023-03-12T17:54:53.181Z,100214.63
2023-03-12T17:56:51.083Z,100213.28
2023-03-12T17:58:46.966Z,100203.66
2023-03-12T18:00:42.064Z,100200.09
2023-03-12T18:02:37.459Z,100206.38
2023-03-12T18:04:32.728Z,100205.44
2023-03-12T18:06:28.302Z,100215.16
2023-03-12T18:08:23.281Z,100216.09
2023-03-12T18:10:19.609Z,100214.91
2023-03-12T18:12:17.269Z,100204.16
2023-03-12T18:14:12.882Z,100203.00
2023-03-12T18:16:08.585Z,100201.38
2023-03-12T18:18:03.956Z,100197.59
2023-03-12T18:19:58.945Z,100194.19
2023-03-12T18:21:54.328Z,100189.91
2023-03-12T18:23:49.466Z,100181.03
2023-03-12T18:25:45.552Z,100174.22
2023-03-12T18:27:43.477Z,100181.22
2023-03-12T18:29:40.830Z,100176.72
2023-03-12T18:31:36.317Z,100175.06
2023-03-12T18:33:31.676Z,100167.13
2023-03-12T18:35:29.165Z,100179.69
2023-03-12T18:37:25.036Z,100185.81
2023-03-12T18:39:20.145Z,100177.75
2023-03-12T18:41:17.076Z,100182.94
2023-03-12T18:43:14.874Z,100180.44
2023-03-12T18:45:11.065Z,100174.97
2023-03-12T18:47:06.182Z,100181.50
2023-03-12T18:49:07.769Z,100181.50
2023-03-12T18:51:03.031Z,100185.06
2023-03-12T18:52:58.404Z,100183.81
2023-03-12T18:54:53.891Z,100176.63
2023-03-12T18:56:49.178Z,100175.00
2023-03-12T18:58:46.775Z,100177.34
2023-03-12T19:00:42.358Z,100169.75
2023-03-12T19:02:37.641Z,100167.16
2023-03-12T19:04:33.163Z,100170.16
2023-03-12T19:06:40.839Z,100153.41
2023-03-12T19:08:43.800Z,100160.06
2023-03-12T19:10:39.194Z,100160.63
2023-03-12T19:12:45.446Z,100150.59
2023-03-12T19:14:47.357Z,100149.75
2023-03-12T19:16:43.133Z,100150.69
2023-03-12T19:18:39.891Z,100145.44
2023-03-12T19:20:36.546Z,100150.19
2023-03-12T19:22:31.996Z,100145.66
2023-03-12T19:24:27.876Z,100140.94
2023-03-12T19:26:23.530Z,100148.75
2023-03-12T19:28:19.469Z,100132.53
2023-03-12T19:30:18.519Z,100133.25
2023-03-12T19:32:14.116Z,100126.59
2023-03-12T19:34:09.299Z,100125.66
2023-03-12T19:36:05.537Z,100123.34
2023-03-12T19:38:02.042Z,100126.66
2023-03-12T19:39:57.696Z,100132.38
2023-03-12T19:41:54.628Z,100131.09
2023-03-12T19:43:51.215Z,100135.66
2023-03-12T19:45:50.363Z,100140.47
2023-03-12T19:47:46.683Z,100133.69
2023-03-12T19:49:42.445Z,100139.97
2023-03-12T19:51:40.218Z,100140.56
2023-03-12T19:53:36.162Z,100132.69
2023-03-12T19:55:31.963Z,100129.13
2023-03-12T19:57:27.982Z,100127.59
2023-03-12T19:59:23.826Z,100135.41
2023-03-12T20:01:21.837Z,100136.00
2023-03-12T20:03:17.550Z,100132.38
2023-03-12T20:05:13.456Z,100133.09
2023-03-12T20:07:09.377Z,100133.31
2023-03-12T20:09:05.247Z,100139.84
2023-03-12T20:11:08.616Z,100139.84
2023-03-12T20:13:07.532Z,100148.69
2023-03-12T20:15:03.361Z,100156.06
2023-03-12T20:17:01.522Z,100143.66
2023-03-12T20:18:57.446Z,100148.16
2023-03-12T20:20:52.688Z,100136.66
2023-03-12T20:22:48.269Z,100135.00
2023-03-12T20:24:44.062Z,100116.44
2023-03-12T20:26:41.388Z,100117.06
2023-03-12T20:28:37.138Z,100118.47
2023-03-12T20:30:32.762Z,100126.88
2023-03-12T20:32:30.518Z,100134.69
2023-03-12T20:34:26.046Z,100127.38
2023-03-12T20:36:21.053Z,100127.50
2023-03-12T20:38:16.413Z,100131.88
2023-03-12T20:40:12.618Z,100121.94
2023-03-12T20:42:08.289Z,100123.25
2023-03-12T20:44:03.577Z,100124.19
2023-03-12T20:45:59.017Z,100115.31
2023-03-12T20:47:57.849Z,100116.03
2023-03-12T20:49:53.142Z,100109.63
2023-03-12T20:51:48.571Z,100109.63
2023-03-12T20:53:44.176Z,100117.22
2023-03-12T20:55:40.614Z,100112.97
2023-03-12T20:57:37.130Z,100123.16
2023-03-12T20:59:34.562Z,100120.53
2023-03-12T21:01:31.052Z,100131.34
2023-03-12T21:03:29.657Z,100127.69
2023-03-12T21:05:25.379Z,100125.06
2023-03-12T21:07:20.729Z,100130.06
2023-03-12T21:09:17.161Z,100136.78
2023-03-12T21:11:13.302Z,100142.00
2023-03-12T21:13:08.820Z,100137.75
2023-03-12T21:15:06.426Z,100135.75
2023-03-12T21:17:02.353Z,100140.63
2023-03-12T21:19:05.105Z,100144.28
2023-03-12T21:21:04.134Z,100141.66
2023-03-12T21:23:01.227Z,100139.91
2023-03-12T21:24:57.033Z,100139.78
2023-03-12T21:26:53.292Z,100143.09
2023-03-12T21:28:51.887Z,100129.09
2023-03-12T21:30:48.405Z,100142.75
2023-03-12T21:32:44.476Z,100147.13
2023-03-12T21:34:42.493Z,100139.19
2023-03-12T21:36:38.560Z,100139.19
2023-03-12T21:38:33.604Z,100143.34
2023-03-12T21:40:29.205Z,100141.47
2023-03-12T21:42:24.411Z,100125.44
2023-03-12T21:44:20.358Z,100112.28
2023-03-12T21:46:17.145Z,100116.66
2023-03-12T21:48:13.754Z,100120.22
2023-03-12T21:50:13.836Z,100112.88
2023-03-12T21:52:09.187Z,100110.63
2023-03-12T21:54:04.220Z,100102.69
2023-03-12T21:56:00.880Z,100110.63
2023-03-12T21:57:55.858Z,100113.13
2023-03-12T21:59:51.208Z,100118.19
2023-03-12T22:01:46.227Z,100126.63
2023-03-12T22:03:43.384Z,100135.16
2023-03-12T22:05:41.358Z,100128.88
2023-03-12T22:07:36.761Z,100121.63
2023-03-12T22:09:31.705Z,100119.63
2023-03-12T22:11:27.163Z,100126.38
2023-03-12T22:13:22.264Z,100123.41
2023-03-12T22:15:17.595Z,100125.06
2023-03-12T22:17:12.534Z,100117.00
2023-03-12T22:19:08.557Z,100118.53
2023-03-12T22:21:07.618Z,100122.66
2023-03-12T22:23:03.007Z,100115.31
2023-03-12T22:24:58.041Z,100123.72
2023-03-12T22:26:53.387Z,100124.56
2023-03-12T22:28:51.965Z,100112.94
2023-03-12T22:30:47.787Z,100112.69